Time;durP1;ratioP1;P1;durP2;ratioP2;P2;SDS_P1;SDS_P2;PMS_P1;PMS_P2;Temp;Humidity;BMP_temperature;BMP_pressure;BME280_temperature;BME280_humidity;BME280_pressure;Samples;Min_cycle;Max_cycle;Signal;HPM_P1;HPM_P2
2023/08/03 00:00:07;;;;;;;8.77;1.30;;;16.30;99.90;;;;;;5009281;28;20041;-84
2023/08/03 00:02:34;;;;;;;9.25;1.40;;;16.30;99.90;;;;;;5008677;28;20366;-83
2023/08/03 00:05:03;;;;;;;4.93;1.15;;;16.40;99.90;;;;;;5009345;28;20390;-84
2023/08/03 00:07:29;;;;;;;6.93;1.20;;;16.40;99.90;;;;;;4991943;28;20049;-84
2023/08/03 00:09:55;;;;;;;6.10;1.20;;;16.40;99.90;;;;;;5009256;28;20049;-84
2023/08/03 00:12:22;;;;;;;5.75;1.17;;;16.40;99.90;;;;;;5008977;28;20057;-83
2023/08/03 00:14:49;;;;;;;9.75;1.65;;;16.40;99.90;;;;;;5025007;28;20091;-83
2023/08/03 00:17:15;;;;;;;9.73;1.40;;;16.40;99.90;;;;;;5008421;28;20068;-84
2023/08/03 00:19:40;;;;;;;8.63;1.15;;;16.40;99.90;;;;;;5007016;28;20049;-84
2023/08/03 00:22:06;;;;;;;9.82;1.23;;;16.40;99.90;;;;;;5027373;28;20141;-83
2023/08/03 00:24:32;;;;;;;7.55;1.20;;;16.40;99.90;;;;;;5027112;28;20441;-83
2023/08/03 00:26:58;;;;;;;8.25;1.33;;;16.30;99.90;;;;;;5007908;28;20417;-83
2023/08/03 00:29:23;;;;;;;6.68;1.02;;;16.40;99.90;;;;;;5009289;28;20148;-83
2023/08/03 00:31:49;;;;;;;7.78;1.13;;;16.30;99.90;;;;;;5007730;28;20041;-82
2023/08/03 00:34:15;;;;;;;8.25;1.38;;;16.30;99.90;;;;;;5007078;28;20034;-83
2023/08/03 00:36:40;;;;;;;5.63;1.10;;;16.30;99.90;;;;;;5026669;28;20045;-82
2023/08/03 00:39:06;;;;;;;5.00;1.05;;;16.30;99.90;;;;;;5009274;28;20053;-82
2023/08/03 00:41:32;;;;;;;6.70;1.30;;;16.30;99.90;;;;;;5024842;28;20440;-83
2023/08/03 00:43:58;;;;;;;8.30;1.17;;;16.30;99.90;;;;;;5008389;28;20045;-83
2023/08/03 00:46:24;;;;;;;9.18;1.63;;;16.30;99.90;;;;;;5026167;28;20091;-82
2023/08/03 00:48:50;;;;;;;6.40;1.10;;;16.30;99.90;;;;;;5025804;28;20136;-83
2023/08/03 00:51:15;;;;;;;8.27;1.02;;;16.30;99.90;;;;;;5011514;28;20398;-83
2023/08/03 00:53:45;;;;;;;5.70;1.10;;;16.30;99.90;;;;;;4999004;28;20041;-83
2023/08/03 00:56:11;;;;;;;4.15;0.90;;;16.30;99.90;;;;;;5014510;28;20045;-83
2023/08/03 00:58:39;;;;;;;4.28;0.98;;;16.30;99.90;;;;;;4999145;28;20053;-83
2023/08/03 01:01:05;;;;;;;5.13;0.90;;;16.30;99.90;;;;;;5014439;28;20041;-83
2023/08/03 01:03:31;;;;;;;2.88;0.80;;;16.30;99.90;;;;;;4998285;28;20052;-83
2023/08/03 01:05:57;;;;;;;4.20;0.82;;;16.30;99.90;;;;;;5015250;28;20041;-82
2023/08/03 01:08:24;;;;;;;6.45;1.13;;;16.30;99.90;;;;;;5002391;28;20052;-82
2023/08/03 01:10:50;;;;;;;6.28;1.52;;;16.40;99.90;;;;;;4997753;28;20045;-83
2023/08/03 01:13:16;;;;;;;3.70;0.90;;;16.30;99.90;;;;;;5015103;28;20452;-82
2023/08/03 01:15:41;;;;;;;6.00;1.08;;;16.30;99.90;;;;;;5031452;28;20029;-83
2023/08/03 01:18:07;;;;;;;6.75;0.90;;;16.30;99.90;;;;;;5032324;28;20061;-83
2023/08/03 01:20:36;;;;;;;5.38;1.10;;;16.30;99.90;;;;;;5014943;28;20049;-82
2023/08/03 01:23:04;;;;;;;5.28;1.10;;;16.30;99.90;;;;;;5032691;28;20058;-83
2023/08/03 01:25:34;;;;;;;4.55;0.90;;;16.30;99.90;;;;;;4998642;28;20041;-82
2023/08/03 01:28:00;;;;;;;3.63;0.80;;;16.30;99.90;;;;;;4998654;28;20041;-83
2023/08/03 01:30:26;;;;;;;6.25;1.05;;;16.30;99.90;;;;;;4997622;28;20065;-83
2023/08/03 01:32:52;;;;;;;4.15;0.80;;;16.30;99.90;;;;;;5014496;28;20053;-83
2023/08/03 01:35:18;;;;;;;4.90;1.05;;;16.30;99.90;;;;;;5015001;28;20041;-83
2023/08/03 01:37:44;;;;;;;6.22;1.00;;;16.20;99.90;;;;;;5014392;28;20071;-82
2023/08/03 01:40:13;;;;;;;5.15;1.00;;;16.30;99.90;;;;;;5033116;28;20497;-83
2023/08/03 01:42:39;;;;;;;3.88;1.08;;;16.20;99.90;;;;;;5015064;28;20456;-82
2023/08/03 01:45:08;;;;;;;8.13;1.20;;;16.20;99.90;;;;;;5032490;28;20596;-82
2023/08/03 01:47:34;;;;;;;6.93;1.10;;;16.20;99.90;;;;;;5014601;28;20053;-83
2023/08/03 01:50:00;;;;;;;7.15;1.30;;;16.20;99.90;;;;;;5015441;28;20448;-82
2023/08/03 01:52:25;;;;;;;3.78;1.00;;;16.30;99.90;;;;;;5014037;28;20041;-83
2023/08/03 01:54:51;;;;;;;5.47;1.08;;;16.20;99.90;;;;;;5015226;28;20130;-83
2023/08/03 01:57:20;;;;;;;5.03;1.10;;;16.30;99.90;;;;;;5015192;28;20046;-83
2023/08/03 01:59:45;;;;;;;5.30;1.00;;;16.30;99.90;;;;;;5014586;28;20045;-83
2023/08/03 02:02:15;;;;;;;6.47;1.27;;;16.20;99.90;;;;;;5013737;28;20347;-83
2023/08/03 02:04:40;;;;;;;4.82;1.10;;;16.20;99.90;;;;;;5011589;28;20477;-83
2023/08/03 02:07:30;;;;;;;8.70;1.05;;;16.20;99.90;;;;;;5029501;28;20053;-83
2023/08/03 02:09:55;;;;;;;10.18;1.05;;;16.20;99.90;;;;;;5010243;28;20061;-83
2023/08/03 02:12:21;;;;;;;6.95;1.23;;;16.20;99.90;;;;;;5029069;28;20398;-83
2023/08/03 02:14:47;;;;;;;8.68;1.13;;;16.20;99.90;;;;;;4995764;28;20037;-83
2023/08/03 02:17:12;;;;;;;7.03;0.95;;;16.20;99.90;;;;;;5028589;28;20057;-83
2023/08/03 02:19:38;;;;;;;10.30;1.40;;;16.20;99.90;;;;;;4994576;28;20343;-82
2023/08/03 02:22:04;;;;;;;4.78;1.00;;;16.20;99.90;;;;;;4995267;28;20195;-83
2023/08/03 02:24:29;;;;;;;3.72;0.85;;;16.20;99.90;;;;;;5011522;28;20116;-82
2023/08/03 02:26:55;;;;;;;5.88;0.90;;;16.20;99.90;;;;;;5010514;28;20045;-83
2023/08/03 02:29:21;;;;;;;3.08;0.80;;;16.20;99.90;;;;;;5011142;28;20069;-82
2023/08/03 02:31:46;;;;;;;6.28;0.98;;;16.20;99.90;;;;;;5010746;28;20050;-82
2023/08/03 02:34:12;;;;;;;4.70;0.93;;;16.30;99.90;;;;;;5027151;28;20122;-83
2023/08/03 02:36:38;;;;;;;6.70;0.90;;;16.20;99.90;;;;;;5027514;28;20072;-83
2023/08/03 02:39:03;;;;;;;2.70;0.93;;;16.20;99.90;;;;;;5011213;28;20517;-83
2023/08/03 02:41:31;;;;;;;4.30;1.15;;;16.20;99.90;;;;;;5027530;28;20034;-82
2023/08/03 02:43:57;;;;;;;4.63;1.10;;;16.20;99.90;;;;;;5011132;28;20131;-82
2023/08/03 02:46:23;;;;;;;6.40;0.80;;;16.20;99.90;;;;;;5010077;28;20060;-83
2023/08/03 02:48:48;;;;;;;7.68;1.40;;;16.10;99.90;;;;;;5010260;28;20136;-83
2023/08/03 02:51:14;;;;;;;4.22;0.98;;;16.20;99.90;;;;;;5011479;28;20037;-82
2023/08/03 02:53:40;;;;;;;4.45;0.80;;;16.20;99.90;;;;;;4993700;28;20528;-83
2023/08/03 02:56:05;;;;;;;4.93;0.80;;;16.20;99.90;;;;;;4993771;28;20108;-83
2023/08/03 02:58:31;;;;;;;4.60;0.98;;;16.20;99.90;;;;;;5028411;28;20080;-82
2023/08/03 03:00:57;;;;;;;2.95;1.08;;;16.20;99.90;;;;;;5027901;28;20131;-82
2023/08/03 03:03:23;;;;;;;3.95;1.25;;;16.20;99.90;;;;;;5027795;28;20128;-82
2023/08/03 03:05:48;;;;;;;5.07;1.70;;;16.20;99.90;;;;;;5010150;28;20038;-83
2023/08/03 03:08:14;;;;;;;3.65;1.17;;;16.20;99.90;;;;;;5023002;28;20087;-82
2023/08/03 03:10:40;;;;;;;5.65;1.70;;;16.20;99.90;;;;;;5010122;28;20041;-82
2023/08/03 03:13:05;;;;;;;3.40;0.90;;;16.20;99.90;;;;;;5010520;28;20038;-82
2023/08/03 03:15:31;;;;;;;5.43;1.20;;;16.20;99.90;;;;;;5010309;28;20041;-82
2023/08/03 03:17:57;;;;;;;7.30;1.13;;;16.20;99.90;;;;;;5009101;28;20092;-82
2023/08/03 03:20:22;;;;;;;5.85;1.58;;;16.20;99.90;;;;;;5010979;28;20172;-82
2023/08/03 03:22:48;;;;;;;5.20;1.40;;;16.10;99.90;;;;;;5009719;28;20143;-82
2023/08/03 03:25:14;;;;;;;4.28;1.40;;;16.20;99.90;;;;;;5010627;28;20509;-82
2023/08/03 03:27:39;;;;;;;5.35;1.60;;;16.10;99.90;;;;;;5026719;28;20049;-82
2023/08/03 03:30:06;;;;;;;6.90;1.42;;;16.10;99.90;;;;;;5026607;28;20056;-82
2023/08/03 03:32:31;;;;;;;4.38;1.50;;;16.10;99.90;;;;;;5009088;28;20053;-82
2023/08/03 03:34:57;;;;;;;4.63;1.42;;;16.10;99.90;;;;;;5010169;28;20041;-82
2023/08/03 03:37:23;;;;;;;7.93;1.58;;;16.10;99.90;;;;;;5008588;28;20040;-82
2023/08/03 03:39:48;;;;;;;5.65;1.40;;;16.10;99.90;;;;;;5010198;28;20091;-82
2023/08/03 03:42:14;;;;;;;4.35;1.60;;;16.10;99.90;;;;;;5026304;28;20548;-82
2023/08/03 03:44:40;;;;;;;5.85;2.22;;;16.10;99.90;;;;;;5027073;28;20488;-82
2023/08/03 03:47:06;;;;;;;5.03;2.15;;;16.10;99.90;;;;;;5027350;28;20338;-82
2023/08/03 03:49:31;;;;;;;5.82;2.22;;;16.10;99.90;;;;;;5026293;28;20132;-82
2023/08/03 03:51:57;;;;;;;4.32;2.00;;;16.10;99.90;;;;;;5009247;28;20129;-82
2023/08/03 03:54:23;;;;;;;4.30;2.60;;;16.10;99.90;;;;;;5009995;28;20037;-81
2023/08/03 03:56:48;;;;;;;4.82;2.50;;;16.10;99.90;;;;;;5009934;28;20521;-82
2023/08/03 03:59:14;;;;;;;8.35;2.92;;;16.10;99.90;;;;;;5009551;28;20404;-82
2023/08/03 04:01:40;;;;;;;9.23;2.90;;;16.10;99.90;;;;;;4992199;28;20049;-83
2023/08/03 04:04:05;;;;;;;7.32;3.17;;;16.10;99.90;;;;;;5028271;28;20041;-83
2023/08/03 04:06:31;;;;;;;5.03;3.05;;;16.10;99.90;;;;;;5008096;28;20508;-82
2023/08/03 04:08:57;;;;;;;8.98;3.40;;;16.10;99.90;;;;;;5009945;28;20828;-82
2023/08/03 04:11:23;;;;;;;6.65;3.10;;;16.10;99.90;;;;;;5008616;28;20037;-82
2023/08/03 04:13:48;;;;;;;8.63;3.60;;;16.10;99.90;;;;;;5014086;28;20367;-82
2023/08/03 04:16:14;;;;;;;7.53;3.63;;;16.10;99.90;;;;;;5024797;28;20215;-82
2023/08/03 04:18:40;;;;;;;5.75;3.13;;;16.10;99.90;;;;;;4991077;28;20469;-82
2023/08/03 04:21:05;;;;;;;9.43;4.07;;;16.10;99.90;;;;;;5027489;28;20049;-82
2023/08/03 04:23:31;;;;;;;10.48;4.40;;;16.20;99.90;;;;;;4992912;28;20516;-82
2023/08/03 04:25:57;;;;;;;7.18;4.07;;;16.10;99.90;;;;;;4991217;28;20045;-82
2023/08/03 04:28:22;;;;;;;13.52;4.35;;;16.20;99.90;;;;;;5008915;28;20045;-82
2023/08/03 04:30:48;;;;;;;12.05;4.65;;;16.20;99.90;;;;;;5010167;28;20488;-83
2023/08/03 04:33:14;;;;;;;11.43;4.50;;;16.20;99.90;;;;;;5000425;28;20052;-82
2023/08/03 04:35:40;;;;;;;11.80;4.35;;;16.20;99.90;;;;;;5008062;28;20042;-82
2023/08/03 04:38:05;;;;;;;9.23;5.15;;;16.20;99.90;;;;;;4990449;28;20948;-82
2023/08/03 04:40:31;;;;;;;11.32;5.43;;;16.20;99.90;;;;;;5006434;28;20037;-82
2023/08/03 04:42:56;;;;;;;12.13;5.50;;;16.30;99.90;;;;;;5006769;28;20084;-82
2023/08/03 04:45:22;;;;;;;11.45;5.63;;;16.30;99.90;;;;;;4990377;28;20057;-82
2023/08/03 04:47:48;;;;;;;10.43;6.07;;;16.30;99.90;;;;;;5005346;28;20077;-83
2023/08/03 04:50:14;;;;;;;13.65;5.72;;;16.30;99.90;;;;;;5025148;28;20041;-82
2023/08/03 04:52:39;;;;;;;10.77;5.72;;;16.30;99.90;;;;;;5008484;28;20049;-82
2023/08/03 04:55:05;;;;;;;13.98;5.70;;;16.30;99.90;;;;;;5026272;28;20171;-82
2023/08/03 04:57:31;;;;;;;11.30;5.38;;;16.30;99.90;;;;;;4992080;28;20505;-82
2023/08/03 04:59:56;;;;;;;17.45;5.60;;;16.40;99.90;;;;;;5025152;28;20045;-81
2023/08/03 05:02:22;;;;;;;9.02;4.90;;;16.30;99.90;;;;;;5006912;28;20053;-82
2023/08/03 05:04:48;;;;;;;11.90;5.38;;;16.30;99.90;;;;;;5026564;28;20116;-82
2023/08/03 05:07:14;;;;;;;21.63;6.18;;;16.30;99.90;;;;;;5026655;28;20083;-82
2023/08/03 05:09:39;;;;;;;15.13;5.30;;;16.40;99.90;;;;;;5007128;28;20045;-81
2023/08/03 05:12:05;;;;;;;13.40;4.90;;;16.40;99.90;;;;;;5008840;28;20045;-82
2023/08/03 05:14:31;;;;;;;12.18;4.25;;;16.40;99.90;;;;;;5024858;28;20045;-83
2023/08/03 05:16:57;;;;;;;14.13;4.47;;;16.40;99.90;;;;;;5007018;28;20091;-82
2023/08/03 05:19:22;;;;;;;10.52;3.90;;;16.40;99.90;;;;;;5008681;28;20093;-82
2023/08/03 05:21:48;;;;;;;9.75;3.47;;;16.40;99.90;;;;;;5025225;28;20045;-83
2023/08/03 05:24:14;;;;;;;9.85;3.85;;;16.40;99.90;;;;;;5009348;28;20041;-83
2023/08/03 05:26:39;;;;;;;9.00;4.07;;;16.50;99.90;;;;;;5007798;28;20046;-82
2023/08/03 05:29:05;;;;;;;13.23;4.18;;;16.50;99.90;;;;;;5025780;28;20316;-83
2023/08/03 05:31:31;;;;;;;10.45;3.95;;;16.50;99.90;;;;;;4991382;28;20069;-83
2023/08/03 05:33:56;;;;;;;12.43;4.95;;;16.50;99.90;;;;;;5007980;28;20047;-83
2023/08/03 05:36:23;;;;;;;12.77;4.70;;;16.60;99.90;;;;;;5025685;28;20176;-83
2023/08/03 05:38:53;;;;;;;10.48;5.45;;;16.60;99.90;;;;;;5010584;28;20053;-83
2023/08/03 05:41:22;;;;;;;16.75;5.90;;;16.60;99.90;;;;;;5012618;28;20045;-82
2023/08/03 05:43:48;;;;;;;9.20;5.25;;;16.60;99.90;;;;;;5027533;28;20454;-82
2023/08/03 05:46:14;;;;;;;8.55;4.82;;;16.60;99.90;;;;;;5029600;28;20112;-83
2023/08/03 05:48:41;;;;;;;11.05;5.10;;;16.60;99.90;;;;;;5011798;28;20145;-83
2023/08/03 05:51:10;;;;;;;11.55;5.13;;;16.50;99.90;;;;;;5027617;28;20045;-82
2023/08/03 05:53:36;;;;;;;7.95;4.72;;;16.60;99.90;;;;;;5011757;28;20421;-82
2023/08/03 05:56:08;;;;;;;11.75;5.38;;;16.50;99.90;;;;;;5043934;28;20052;-81
2023/08/03 05:58:36;;;;;;;8.57;4.47;;;16.50;99.90;;;;;;5001522;28;20041;-82
2023/08/03 06:01:02;;;;;;;10.40;4.75;;;16.60;99.90;;;;;;5010671;28;20047;-81
2023/08/03 06:03:31;;;;;;;10.23;4.53;;;16.70;99.90;;;;;;5028605;28;20132;-83
2023/08/03 06:05:59;;;;;;;7.82;4.65;;;16.70;99.90;;;;;;5010020;28;20072;-83
2023/08/03 06:08:26;;;;;;;12.70;4.35;;;16.90;99.90;;;;;;5027643;28;20540;-83
2023/08/03 06:10:56;;;;;;;7.03;4.28;;;17.00;99.90;;;;;;4994888;28;20041;-83
2023/08/03 06:13:49;;;;;;;6.63;4.03;;;17.10;99.90;;;;;;5011529;28;20048;-83
2023/08/03 06:16:15;;;;;;;8.18;4.00;;;17.10;99.90;;;;;;5007745;28;20057;-83
2023/08/03 06:18:49;;;;;;;7.05;3.17;;;17.10;99.90;;;;;;5010256;28;20060;-84
2023/08/03 06:21:16;;;;;;;6.97;3.10;;;17.10;99.90;;;;;;4992880;28;20099;-83
2023/08/03 06:23:47;;;;;;;5.03;2.45;;;17.10;99.90;;;;;;5009641;28;20561;-83
2023/08/03 06:26:14;;;;;;;4.22;2.85;;;17.10;99.90;;;;;;5008306;28;20486;-83
2023/08/03 06:28:40;;;;;;;4.80;3.15;;;17.20;99.90;;;;;;5009118;28;20505;-84
2023/08/03 06:31:16;;;;;;;6.93;3.30;;;17.30;99.90;;;;;;4989118;28;20044;-83
2023/08/03 06:33:43;;;;;;;5.88;3.08;;;17.30;99.90;;;;;;5009002;28;20049;-83
2023/08/03 06:36:23;;;;;;;6.22;2.83;;;17.40;99.90;;;;;;5011685;28;20037;-83
2023/08/03 06:38:49;;;;;;;8.05;2.72;;;17.40;99.90;;;;;;5028921;28;20088;-82
2023/08/03 06:41:15;;;;;;;5.10;2.35;;;17.50;99.90;;;;;;5027982;28;20505;-83
2023/08/03 06:43:41;;;;;;;4.93;2.50;;;17.70;99.90;;;;;;5010130;28;20099;-83
2023/08/03 06:46:07;;;;;;;3.90;2.17;;;17.80;99.90;;;;;;5009807;28;20111;-83
2023/08/03 06:48:33;;;;;;;7.00;2.53;;;17.80;99.90;;;;;;4994132;28;20073;-84
2023/08/03 06:51:03;;;;;;;2.83;2.03;;;17.80;99.90;;;;;;4994312;28;20496;-83
2023/08/03 06:53:30;;;;;;;4.50;2.38;;;17.80;99.90;;;;;;5010287;28;20045;-83
2023/08/03 06:55:55;;;;;;;3.33;2.10;;;17.80;99.90;;;;;;5010453;28;20038;-84
2023/08/03 06:58:21;;;;;;;4.70;1.98;;;17.90;99.90;;;;;;5011205;28;20099;-85
2023/08/03 07:00:47;;;;;;;3.53;1.73;;;17.90;99.90;;;;;;4992651;28;20548;-84
2023/08/03 07:03:13;;;;;;;4.30;2.17;;;18.00;99.90;;;;;;5011069;28;20216;-84
2023/08/03 07:05:40;;;;;;;5.95;2.10;;;18.10;99.90;;;;;;5028312;28;20625;-85
2023/08/03 07:08:06;;;;;;;4.03;1.80;;;18.10;99.90;;;;;;5027574;28;20072;-84
2023/08/03 07:10:33;;;;;;;4.80;2.05;;;18.10;99.90;;;;;;4994296;28;20041;-84
2023/08/03 07:12:59;;;;;;;5.22;1.60;;;18.20;99.90;;;;;;4993772;28;20081;-84
2023/08/03 07:15:25;;;;;;;3.60;1.60;;;18.30;99.90;;;;;;5026499;28;20080;-83
2023/08/03 07:17:53;;;;;;;4.03;1.25;;;18.40;99.90;;;;;;5008138;28;20095;-85
2023/08/03 07:20:19;;;;;;;3.50;1.10;;;18.50;99.90;;;;;;5028361;28;20069;-84
2023/08/03 07:22:48;;;;;;;3.25;0.98;;;18.50;99.90;;;;;;5022071;28;20395;-89
2023/08/03 07:25:14;;;;;;;3.05;1.00;;;18.60;99.90;;;;;;5015204;28;20076;-88
2023/08/03 07:27:41;;;;;;;3.80;0.90;;;18.80;99.90;;;;;;4996149;28;20073;-88
2023/08/03 07:30:08;;;;;;;3.97;0.85;;;18.90;99.90;;;;;;4994189;28;20120;-83
2023/08/03 07:32:35;;;;;;;1.70;0.80;;;18.80;99.90;;;;;;5003301;28;20132;-84
2023/08/03 07:35:01;;;;;;;4.20;0.88;;;18.70;99.90;;;;;;4993847;28;20059;-84
2023/08/03 07:37:27;;;;;;;2.47;0.77;;;18.70;99.90;;;;;;5001714;28;20437;-85
2023/08/03 07:39:53;;;;;;;2.33;0.70;;;18.70;99.90;;;;;;5010234;28;20179;-85
2023/08/03 07:42:18;;;;;;;3.60;0.80;;;18.70;99.90;;;;;;5001995;28;20485;-85
2023/08/03 07:44:47;;;;;;;5.63;0.73;;;18.70;99.90;;;;;;5014295;28;20037;-85
2023/08/03 07:47:13;;;;;;;7.53;1.00;;;18.70;99.90;;;;;;5009041;28;20125;-86
2023/08/03 07:49:39;;;;;;;4.50;0.90;;;18.90;99.90;;;;;;5009404;28;20045;-86
2023/08/03 07:52:05;;;;;;;5.18;0.73;;;19.00;99.90;;;;;;5001998;28;20092;-86
2023/08/03 07:54:31;;;;;;;5.28;0.60;;;19.10;99.90;;;;;;5010021;28;20132;-85
2023/08/03 07:56:57;;;;;;;5.45;0.88;;;19.20;99.90;;;;;;5009235;28;20498;-86
2023/08/03 07:59:22;;;;;;;3.35;0.50;;;19.30;99.90;;;;;;4993138;28;20433;-86
2023/08/03 08:01:48;;;;;;;7.20;0.90;;;19.40;99.90;;;;;;5008437;28;20091;-86
2023/08/03 08:04:14;;;;;;;4.47;0.68;;;19.40;99.90;;;;;;5007525;28;20465;-86
2023/08/03 08:06:40;;;;;;;3.03;0.60;;;19.40;99.90;;;;;;4991649;28;20563;-87
2023/08/03 08:09:06;;;;;;;3.53;0.77;;;19.40;99.90;;;;;;5008335;28;20144;-85
2023/08/03 08:11:32;;;;;;;3.80;0.55;;;19.60;99.90;;;;;;5007221;28;20125;-86
2023/08/03 08:13:59;;;;;;;5.20;0.70;;;19.70;99.90;;;;;;5039102;28;20056;-86
2023/08/03 08:16:25;;;;;;;4.60;1.05;;;19.70;99.90;;;;;;5003456;28;20041;-87
2023/08/03 08:18:51;;;;;;;4.68;0.70;;;19.70;99.90;;;;;;4991790;28;20065;-87
2023/08/03 08:21:17;;;;;;;3.97;0.80;;;19.60;99.90;;;;;;5010269;28;20128;-86
2023/08/03 08:23:43;;;;;;;6.97;0.95;;;19.60;99.90;;;;;;5006060;28;20135;-87
2023/08/03 08:26:14;;;;;;;4.82;0.52;;;19.70;99.90;;;;;;4992994;28;20612;-87
2023/08/03 08:28:41;;;;;;;5.18;0.88;;;19.90;99.90;;;;;;5009107;28;20053;-86
2023/08/03 08:31:08;;;;;;;4.93;0.55;;;20.20;99.90;;;;;;4993002;28;20513;-87
2023/08/03 08:33:34;;;;;;;3.03;0.45;;;20.40;99.90;;;;;;4992159;28;20406;-87
2023/08/03 08:36:00;;;;;;;5.80;0.90;;;20.40;99.90;;;;;;5009351;28;20084;-87
2023/08/03 08:38:25;;;;;;;3.53;0.68;;;20.10;99.90;;;;;;5027141;28;20085;-87
2023/08/03 08:40:52;;;;;;;4.45;1.05;;;20.00;99.90;;;;;;5008683;28;20033;-87
2023/08/03 08:43:18;;;;;;;5.10;0.70;;;19.80;99.90;;;;;;5009758;28;20137;-87
2023/08/03 08:45:44;;;;;;;5.72;0.82;;;19.60;99.90;;;;;;5008136;28;20099;-86
2023/08/03 08:48:10;;;;;;;8.13;0.98;;;19.50;99.90;;;;;;5026572;28;20041;-86
2023/08/03 08:50:38;;;;;;;6.13;0.90;;;19.50;99.90;;;;;;4992610;28;20428;-86
2023/08/03 08:53:04;;;;;;;6.30;0.75;;;19.80;99.90;;;;;;5008517;28;20055;-86
2023/08/03 08:55:31;;;;;;;3.65;0.75;;;19.90;99.90;;;;;;4993226;28;20041;-86
2023/08/03 08:57:58;;;;;;;4.82;0.82;;;20.00;99.90;;;;;;5026617;28;20053;-86
2023/08/03 09:00:25;;;;;;;5.97;1.00;;;20.00;99.90;;;;;;5008396;28;20060;-86
2023/08/03 09:03:00;;;;;;;4.05;0.60;;;19.90;99.90;;;;;;5007476;28;20133;-86
2023/08/03 09:05:27;;;;;;;6.85;0.80;;;19.90;99.90;;;;;;5008928;28;20045;-87
2023/08/03 09:08:03;;;;;;;7.85;1.30;;;19.80;99.90;;;;;;5008533;28;20045;-87
2023/08/03 09:10:29;;;;;;;6.50;1.00;;;19.90;99.90;;;;;;4992348;28;20045;-85
2023/08/03 09:12:56;;;;;;;5.70;0.88;;;20.20;99.90;;;;;;4994953;28;20048;-86
2023/08/03 09:15:51;;;;;;;8.40;1.23;;;20.40;99.90;;;;;;4996091;28;20037;-87
2023/08/03 09:18:17;;;;;;;6.13;0.90;;;20.80;99.90;;;;;;4984337;28;20574;-87
2023/08/03 09:20:45;;;;;;;5.22;0.73;;;21.10;99.90;;;;;;5011956;28;20057;-87
2023/08/03 09:23:30;;;;;;;10.43;0.82;;;21.10;99.90;;;;;;4996713;28;20045;-86
2023/08/03 09:25:56;;;;;;;4.57;0.80;;;20.90;99.90;;;;;;5025430;28;20116;-87
2023/08/03 09:28:43;;;;;;;7.30;1.00;;;20.70;99.90;;;;;;5011701;28;20128;-87
2023/08/03 09:31:10;;;;;;;6.75;1.02;;;20.60;99.90;;;;;;5016249;28;20047;-86
2023/08/03 09:33:36;;;;;;;7.25;1.00;;;20.50;99.90;;;;;;4996489;28;20046;-86
2023/08/03 09:36:03;;;;;;;4.72;0.90;;;20.50;99.90;;;;;;5016648;28;20037;-87
2023/08/03 09:38:29;;;;;;;9.05;0.90;;;20.60;99.90;;;;;;5030466;28;20479;-87
2023/08/03 09:40:55;;;;;;;10.48;1.40;;;20.80;99.90;;;;;;4995836;28;20101;-95
2023/08/03 09:43:23;;;;;;;6.00;1.13;;;21.10;99.90;;;;;;5032950;28;20044;-95
2023/08/03 09:45:52;;;;;;;9.48;1.30;;;21.40;99.90;;;;;;5000322;28;20083;-94
2023/08/03 09:48:19;;;;;;;8.50;1.50;;;21.50;99.90;;;;;;5004021;28;20064;-94
2023/08/03 09:50:50;;;;;;;8.95;1.60;;;21.30;99.90;;;;;;5009224;28;20041;-92
2023/08/03 09:53:20;;;;;;;12.25;1.95;;;21.10;99.90;;;;;;5003085;28;20053;-91
2023/08/03 09:56:00;;;;;;;9.10;1.67;;;21.00;99.90;;;;;;5019291;28;20052;-92
2023/08/03 09:58:51;;;;;;;8.90;1.50;;;20.90;99.90;;;;;;4997077;28;20098;-93
2023/08/03 10:01:23;;;;;;;11.57;1.63;;;21.10;99.90;;;;;;5019906;28;20042;-94
2023/08/03 10:03:55;;;;;;;10.38;1.70;;;21.30;99.90;;;;;;4997569;28;20057;-95
2023/08/03 10:06:26;;;;;;;8.98;1.38;;;21.60;99.90;;;;;;5006586;28;20042;-94
2023/08/03 10:08:59;;;;;;;8.43;1.50;;;21.90;99.90;;;;;;5016532;28;20048;-95
2023/08/03 10:11:35;;;;;;;10.20;1.08;;;22.10;99.90;;;;;;5010387;28;20052;-95
2023/08/03 10:14:04;;;;;;;9.63;1.25;;;22.30;99.90;;;;;;5030077;28;20187;-93
2023/08/03 10:16:33;;;;;;;12.18;1.67;;;22.40;99.90;;;;;;5016093;28;20041;-96
2023/08/03 10:19:01;;;;;;;7.55;1.52;;;22.40;99.90;;;;;;5012691;28;20059;-91
2023/08/03 10:21:28;;;;;;;7.55;1.20;;;22.40;99.90;;;;;;5000308;28;20038;-92
2023/08/03 10:24:13;;;;;;;18.80;2.38;;;22.20;99.90;;;;;;5002484;28;20045;-84
2023/08/03 10:26:40;;;;;;;9.40;1.77;;;22.00;99.90;;;;;;5010955;28;20049;-86
2023/08/03 10:29:06;;;;;;;9.30;1.70;;;21.70;99.90;;;;;;5011534;28;20044;-85
2023/08/03 10:31:32;;;;;;;8.43;1.48;;;21.40;99.90;;;;;;5026276;28;20034;-83
2023/08/03 10:33:58;;;;;;;4.93;1.27;;;21.00;99.90;;;;;;4995171;28;20405;-86
2023/08/03 10:36:40;;;;;;;11.45;1.98;;;20.80;99.90;;;;;;5010843;28;21222;-84
2023/08/03 10:39:11;;;;;;;13.70;1.88;;;20.50;99.90;;;;;;4994084;28;20540;-85
2023/08/03 10:41:44;;;;;;;13.02;1.98;;;20.20;99.90;;;;;;5010974;28;20051;-85
2023/08/03 10:44:13;;;;;;;19.27;2.58;;;20.00;99.90;;;;;;5011558;28;20041;-82
2023/08/03 10:46:47;;;;;;;17.30;2.55;;;19.80;99.90;;;;;;5009401;28;20088;-83
2023/08/03 10:49:19;;;;;;;16.17;2.55;;;19.80;99.90;;;;;;5011663;28;20057;-83
2023/08/03 10:51:53;;;;;;;13.93;2.10;;;19.80;99.90;;;;;;5010564;28;20124;-84
2023/08/03 10:54:21;;;;;;;13.43;2.42;;;19.80;99.90;;;;;;5011049;28;20053;-83
2023/08/03 10:57:22;;;;;;;13.43;1.80;;;19.90;99.90;;;;;;5028574;28;20059;-84
2023/08/03 10:59:50;;;;;;;15.48;2.20;;;20.30;99.90;;;;;;5017143;28;20088;-85
2023/08/03 11:02:22;;;;;;;13.55;2.20;;;20.60;99.90;;;;;;5008838;28;20200;-84
2023/08/03 11:04:52;;;;;;;13.15;2.10;;;20.90;99.90;;;;;;5029574;28;20033;-85
2023/08/03 11:07:26;;;;;;;7.68;1.58;;;21.10;99.90;;;;;;5012305;28;20049;-84
2023/08/03 11:09:53;;;;;;;12.00;2.60;;;21.00;99.90;;;;;;5012683;28;20052;-85
2023/08/03 11:12:22;;;;;;;7.82;1.55;;;20.90;99.90;;;;;;5011437;28;20041;-85
2023/08/03 11:14:50;;;;;;;6.80;1.50;;;20.80;99.90;;;;;;5028526;28;20146;-84
2023/08/03 11:17:21;;;;;;;9.32;1.50;;;20.60;99.90;;;;;;5010488;28;20386;-85
2023/08/03 11:19:47;;;;;;;6.78;1.40;;;20.50;99.90;;;;;;5009726;28;20045;-86
2023/08/03 11:22:13;;;;;;;8.98;1.77;;;20.40;99.90;;;;;;4994399;28;20049;-84
2023/08/03 11:24:39;;;;;;;5.00;0.85;;;20.30;99.90;;;;;;5027793;28;20485;-84
2023/08/03 11:27:05;;;;;;;11.27;1.52;;;20.40;99.90;;;;;;4994451;28;20049;-85
2023/08/03 11:29:35;;;;;;;5.55;1.30;;;20.50;99.90;;;;;;4993195;28;20045;-85
2023/08/03 11:32:02;;;;;;;5.63;0.98;;;20.80;99.90;;;;;;5010247;28;20038;-85
2023/08/03 11:34:28;;;;;;;8.63;0.93;;;20.90;99.90;;;;;;4997325;28;20045;-87
2023/08/03 11:36:54;;;;;;;4.50;1.00;;;20.90;99.90;;;;;;5010227;28;20123;-85
2023/08/03 11:39:20;;;;;;;7.22;0.85;;;20.80;99.90;;;;;;4993683;28;20099;-89
2023/08/03 11:41:47;;;;;;;4.72;0.63;;;20.80;99.90;;;;;;5009784;28;20038;-87
2023/08/03 11:44:14;;;;;;;4.13;0.50;;;21.00;99.90;;;;;;5010541;28;20343;-87
2023/08/03 11:46:40;;;;;;;5.13;0.90;;;21.20;99.90;;;;;;5009376;28;20054;-83
2023/08/03 11:49:12;;;;;;;11.48;1.95;;;21.40;99.90;;;;;;5009341;28;20042;-85
2023/08/03 11:51:38;;;;;;;6.13;1.15;;;21.30;99.90;;;;;;5027107;28;20050;-84
2023/08/03 11:54:09;;;;;;;8.27;1.33;;;21.40;99.90;;;;;;4994004;28;20575;-85
2023/08/03 11:56:39;;;;;;;6.40;0.60;;;21.50;99.90;;;;;;4992392;28;20064;-87
2023/08/03 11:59:08;;;;;;;5.05;0.63;;;21.70;99.90;;;;;;5010869;28;20049;-87
2023/08/03 12:01:46;;;;;;;4.18;0.50;;;21.60;99.90;;;;;;5008963;28;20107;-86
2023/08/03 12:04:12;;;;;;;2.72;0.65;;;21.50;99.90;;;;;;5008903;28;20038;-86
2023/08/03 12:06:52;;;;;;;3.90;0.70;;;21.50;99.90;;;;;;4992709;28;20361;-86
2023/08/03 12:09:26;;;;;;;6.68;0.82;;;21.50;99.90;;;;;;5040471;28;20033;-85
2023/08/03 12:12:03;;;;;;;4.30;0.73;;;21.40;99.90;;;;;;4981455;28;20046;-86
2023/08/03 12:14:29;;;;;;;6.25;0.98;;;21.40;99.90;;;;;;5009658;28;20072;-86
2023/08/03 12:16:54;;;;;;;6.82;1.05;;;21.50;99.90;;;;;;5007833;28;20053;-86
2023/08/03 12:19:20;;;;;;;4.85;1.00;;;21.60;99.90;;;;;;5009254;28;20095;-84
2023/08/03 12:21:46;;;;;;;6.78;0.85;;;21.70;99.90;;;;;;5008763;28;20053;-86
2023/08/03 12:24:12;;;;;;;6.47;1.30;;;21.80;99.90;;;;;;5001913;28;20037;-85
2023/08/03 12:26:40;;;;;;;6.30;1.13;;;21.90;99.90;;;;;;5009670;28;20045;-90
2023/08/03 12:29:06;;;;;;;6.90;1.20;;;22.10;99.90;;;;;;4996976;28;20079;-88
2023/08/03 12:31:34;;;;;;;15.35;1.92;;;22.00;99.90;;;;;;5030658;28;20116;-89
2023/08/03 12:33:59;;;;;;;9.95;1.52;;;21.70;99.90;;;;;;5015554;28;20071;-91
2023/08/03 12:36:26;;;;;;;7.85;1.08;;;21.40;99.90;;;;;;4992094;28;20042;-86
2023/08/03 12:38:52;;;;;;;7.03;1.13;;;21.00;99.90;;;;;;5023636;28;20128;-85
2023/08/03 12:41:19;;;;;;;6.13;1.40;;;20.70;99.90;;;;;;5027623;28;20117;-85
2023/08/03 12:43:46;;;;;;;7.93;1.20;;;20.60;99.90;;;;;;5026938;28;20152;-85
2023/08/03 12:46:12;;;;;;;10.70;1.40;;;20.60;99.90;;;;;;5008023;28;20041;-84